Dallas, Texas
Traffic Map
Current Weather Conditions
Dallas, Texas
Overcast
Overcast
26°
Feels Like: 27°
Wind Chill: 26° Ceiling: 15000
Heat Index: 27° Visibility: 10mi
Dew Point: 22° Wind: 3mph
Humidity: 81% Direction: 110° (ESE)
Pressure: 30.04in Gusts: 0mph
Raw Report DataKDAL 290853Z 11003KT 10SM FEW030 OVC150 26/22 A3004 RMK AO2 SLP166 FRQ LTGIC DSNT W-NW T02560222 53007
Traffic Incident Summary
Active as of:
Severity:
Category:
InformationThere was an issue retrieving the traffic information for this location. Please try a different location or try again shortly.
Advertisements
Track Severe Weather on mobile